Kezdőlap
METAR-TAF:

METAR-TAF

Repülőterek :

Redwood Falls Municipal Airport

Redwood Falls, Minnesota, Amerikai Egyesült Államok

földrajzi szélesség: 44-32-50N, földrajzi hosszúság: 095-04-56W, magasság: 312 m

Jelenlegi meteorológiai megfigyelések

A jelentés 28 perccel ezelõtt készült, 19:53 UTC
Különbözõ irányokból fújó szél 5 kt
Hőmérséklet 21°C
Páratartalom 33%
Légköri nyomás 1024 hPa
Látótávolság: 16.1 km
Derült ég

METAR: KRWF 221953Z AUTO VRB05KT 10SM CLR 21/04 A3024 RMK AO2 SLP242 T02060044

Idő: 15:21 (20:21 UTC)

Előrejelzés

A jelentés 3 órával és 1 perccel ezelõtt készült, 17:20 UTC
Az előrejelzés 22-én 18 óra UTC és 23-én 18 óra UTC között érvényes
Déli szél 5 kt
Látótávolság: 10 km
Derült ég

TAF: KRWF 221720Z 2218/2318 17005KT P6SM SKC

Meteorológiai megfigyelések és előrejelzések több, mint 4000 repülőtéren (METAR és TAF jelentéseket).

A térképen piros és sárga pontok jelzik az elérhető meteorológiai állomásokat.

Mozgassa az egeret a pont fölött, hogy megjelenjen az állomás neve.

Azután kattintson az időjárási megfigyelések és előrejelzések megtekintéséhez.

A térkép megváltoztatása: kattintson a fekete keresztel jelölt zöld gombra ráközelítéshez, a vonallal jelölt zöld gombra távolításhoz, vagy a zöld nyilakra a szomszédos térképek eléréséhez.


METAR-TAF: